createdAt,value
2018-08-12T00:00:32.488Z,994.98
2018-08-12T00:01:32.638Z,994.98
2018-08-12T00:02:32.790Z,994.97
2018-08-12T00:03:32.940Z,994.98
2018-08-12T00:04:33.088Z,994.94
2018-08-12T00:05:33.239Z,994.93
2018-08-12T00:06:33.389Z,994.94
2018-08-12T00:07:33.541Z,994.89
2018-08-12T00:08:33.691Z,994.89
2018-08-12T00:09:33.842Z,994.90
2018-08-12T00:10:33.993Z,994.90
2018-08-12T00:11:34.141Z,994.91
2018-08-12T00:12:34.298Z,994.93
2018-08-12T00:13:34.444Z,994.92
2018-08-12T00:14:34.595Z,994.87
2018-08-12T00:15:34.745Z,994.91
2018-08-12T00:16:34.894Z,994.92
2018-08-12T00:17:35.044Z,994.90
2018-08-12T00:18:35.194Z,994.86
2018-08-12T00:19:35.345Z,994.86
2018-08-12T00:20:35.495Z,994.87
2018-08-12T00:21:35.644Z,994.88
2018-08-12T00:22:35.796Z,994.86
2018-08-12T00:23:35.949Z,994.87
2018-08-12T00:24:36.098Z,994.80
2018-08-12T00:25:36.250Z,994.80
2018-08-12T00:26:36.400Z,994.79
2018-08-12T00:27:36.552Z,994.81
2018-08-12T00:28:36.702Z,994.79
2018-08-12T00:29:36.850Z,994.77
2018-08-12T00:30:37.001Z,994.78
2018-08-12T00:31:37.152Z,994.76
2018-08-12T00:32:37.303Z,994.79
2018-08-12T00:33:37.454Z,994.76
2018-08-12T00:34:37.601Z,994.74
2018-08-12T00:35:37.750Z,994.73
2018-08-12T00:36:37.901Z,994.78
2018-08-12T00:37:38.053Z,994.73
2018-08-12T00:38:38.201Z,994.75
2018-08-12T00:39:38.353Z,994.72
2018-08-12T00:40:38.501Z,994.73
2018-08-12T00:41:38.652Z,994.74
2018-08-12T00:42:38.800Z,994.73
2018-08-12T00:43:38.950Z,994.75
2018-08-12T00:44:39.100Z,994.74
2018-08-12T00:45:39.251Z,994.70
2018-08-12T00:46:39.403Z,994.70
2018-08-12T00:47:39.553Z,994.72
2018-08-12T00:48:39.707Z,994.68
2018-08-12T00:49:39.850Z,994.73
2018-08-12T00:50:40.035Z,994.69
2018-08-12T00:51:40.152Z,994.67
2018-08-12T00:52:40.301Z,994.64
2018-08-12T00:53:40.448Z,994.66
2018-08-12T00:54:40.599Z,994.63
2018-08-12T00:55:40.747Z,994.62
2018-08-12T00:56:40.895Z,994.62
2018-08-12T00:57:41.045Z,994.66
2018-08-12T00:58:41.195Z,994.64
2018-08-12T00:59:41.343Z,994.67
2018-08-12T01:00:41.492Z,994.64
2018-08-12T01:01:41.643Z,994.66
2018-08-12T01:02:41.795Z,994.64
2018-08-12T01:03:41.944Z,994.61
2018-08-12T01:04:42.096Z,994.62
2018-08-12T01:05:42.245Z,994.60
2018-08-12T01:06:42.394Z,994.58
2018-08-12T01:07:42.541Z,994.58
2018-08-12T01:08:42.692Z,994.61
2018-08-12T01:09:42.842Z,994.61
2018-08-12T01:10:42.993Z,994.62
2018-08-12T01:11:43.142Z,994.61
2018-08-12T01:12:43.292Z,994.60
2018-08-12T01:13:43.440Z,994.65
2018-08-12T01:14:43.595Z,994.61
2018-08-12T01:15:43.740Z,994.63
2018-08-12T01:16:43.893Z,994.66
2018-08-12T01:17:44.039Z,994.60
2018-08-12T01:18:44.190Z,994.63
2018-08-12T01:19:44.341Z,994.58
2018-08-12T01:20:44.494Z,994.60
2018-08-12T01:21:44.643Z,994.60
2018-08-12T01:22:44.790Z,994.58
2018-08-12T01:23:44.938Z,994.56
2018-08-12T01:24:45.090Z,994.58
2018-08-12T01:25:45.245Z,994.56
2018-08-12T01:26:45.387Z,994.54
2018-08-12T01:27:45.539Z,994.53
2018-08-12T01:28:45.689Z,994.52
2018-08-12T01:29:45.839Z,994.51
2018-08-12T01:30:45.989Z,994.52
2018-08-12T01:31:46.140Z,994.52
2018-08-12T01:32:46.288Z,994.55
2018-08-12T01:33:46.438Z,994.50
2018-08-12T01:34:46.593Z,994.51
2018-08-12T01:35:46.749Z,994.51
2018-08-12T01:36:46.890Z,994.48
2018-08-12T01:37:47.041Z,994.43
2018-08-12T01:38:47.192Z,994.46
2018-08-12T01:39:47.364Z,994.45
2018-08-12T01:40:47.492Z,994.46
2018-08-12T01:41:47.645Z,994.45
2018-08-12T01:42:47.790Z,994.44
2018-08-12T01:43:47.943Z,994.43
2018-08-12T01:44:48.090Z,994.45
2018-08-12T01:45:48.238Z,994.43
2018-08-12T01:46:48.387Z,994.44
2018-08-12T01:47:48.538Z,994.44
2018-08-12T01:48:48.686Z,994.43
2018-08-12T01:49:48.834Z,994.42
2018-08-12T01:50:48.986Z,994.43
2018-08-12T01:51:49.135Z,994.39
2018-08-12T01:52:49.285Z,994.47
2018-08-12T01:53:49.437Z,994.41
2018-08-12T01:54:49.582Z,994.42
2018-08-12T01:55:49.734Z,994.39
2018-08-12T01:56:49.883Z,994.37
2018-08-12T01:57:50.030Z,994.38
2018-08-12T01:58:50.182Z,994.40
2018-08-12T01:59:50.331Z,994.39
2018-08-12T02:00:50.486Z,994.38
2018-08-12T02:01:50.631Z,994.36
2018-08-12T02:02:50.778Z,994.36
2018-08-12T02:03:50.931Z,994.37
2018-08-12T02:04:51.074Z,994.36
2018-08-12T02:05:51.225Z,994.37
2018-08-12T02:06:51.375Z,994.29
2018-08-12T02:07:51.526Z,994.35
2018-08-12T02:08:51.675Z,994.30
2018-08-12T02:09:51.820Z,994.32
2018-08-12T02:10:51.985Z,994.32
2018-08-12T02:11:52.132Z,994.32
2018-08-12T02:12:52.287Z,994.31
2018-08-12T02:13:52.431Z,994.30
2018-08-12T02:14:52.582Z,994.29
2018-08-12T02:15:52.732Z,994.31
2018-08-12T02:16:52.881Z,994.34
2018-08-12T02:17:53.030Z,994.33
2018-08-12T02:18:53.180Z,994.30
2018-08-12T02:19:53.332Z,994.35
2018-08-12T02:20:53.479Z,994.30
2018-08-12T02:21:53.626Z,994.30
2018-08-12T02:22:53.777Z,994.25
2018-08-12T02:23:53.931Z,994.25
2018-08-12T02:24:54.078Z,994.22
2018-08-12T02:25:54.227Z,994.22
2018-08-12T02:26:54.374Z,994.19
2018-08-12T02:27:54.530Z,994.16
2018-08-12T02:28:54.676Z,994.21
2018-08-12T02:29:54.821Z,994.20
2018-08-12T02:30:54.972Z,994.16
2018-08-12T02:31:55.120Z,994.19
2018-08-12T02:32:55.271Z,994.15
2018-08-12T02:33:55.415Z,994.17
2018-08-12T02:34:55.564Z,994.17
2018-08-12T02:35:55.719Z,994.24
2018-08-12T02:36:55.865Z,994.16
2018-08-12T02:37:56.018Z,994.23
2018-08-12T02:38:56.169Z,994.21
2018-08-12T02:39:56.317Z,994.21
2018-08-12T02:40:56.463Z,994.20
2018-08-12T02:41:56.613Z,994.21
2018-08-12T02:42:56.761Z,994.22
2018-08-12T02:43:56.908Z,994.17
2018-08-12T02:44:57.064Z,994.19
2018-08-12T02:45:57.207Z,994.16
2018-08-12T02:46:57.355Z,994.13
2018-08-12T02:47:57.504Z,994.15
2018-08-12T02:48:57.653Z,994.12
2018-08-12T02:49:57.803Z,994.13
2018-08-12T02:50:57.952Z,994.08
2018-08-12T02:51:58.099Z,994.08
2018-08-12T02:52:58.251Z,994.08
2018-08-12T02:53:58.398Z,994.07
2018-08-12T02:54:58.545Z,994.07
2018-08-12T02:55:58.697Z,994.04
2018-08-12T02:56:58.843Z,994.04
2018-08-12T02:57:58.992Z,994.00
2018-08-12T02:58:59.141Z,993.99
2018-08-12T02:59:59.287Z,993.99
2018-08-12T03:00:59.438Z,993.95
2018-08-12T03:01:59.584Z,993.92
2018-08-12T03:02:59.743Z,993.92
2018-08-12T03:03:59.882Z,993.91
2018-08-12T03:05:00.043Z,993.89
2018-08-12T03:06:00.180Z,993.90
2018-08-12T03:07:00.329Z,993.90
2018-08-12T03:08:00.478Z,993.93
2018-08-12T03:09:00.630Z,993.97
2018-08-12T03:10:00.777Z,993.92
2018-08-12T03:11:00.928Z,993.91
2018-08-12T03:12:01.076Z,993.90
2018-08-12T03:13:01.228Z,993.89
2018-08-12T03:14:01.379Z,993.87
2018-08-12T03:15:01.539Z,993.87
2018-08-12T03:16:01.671Z,993.81
2018-08-12T03:17:01.820Z,993.80
2018-08-12T03:18:01.969Z,993.83
2018-08-12T03:19:02.115Z,993.84
2018-08-12T03:20:02.266Z,993.83
2018-08-12T03:21:02.417Z,993.79
2018-08-12T03:22:02.566Z,993.80
2018-08-12T03:23:02.713Z,993.84
2018-08-12T03:24:02.864Z,993.83
2018-08-12T03:25:03.011Z,993.83
2018-08-12T03:26:03.162Z,993.85
2018-08-12T03:27:03.312Z,993.83
2018-08-12T03:28:03.460Z,993.83
2018-08-12T03:29:03.609Z,993.81
2018-08-12T03:30:03.788Z,993.79
2018-08-12T03:31:03.905Z,993.79
2018-08-12T03:32:04.055Z,993.75
2018-08-12T03:33:04.205Z,993.75
2018-08-12T03:34:04.358Z,993.73
2018-08-12T03:35:04.501Z,993.71
2018-08-12T03:36:04.649Z,993.69
2018-08-12T03:37:04.800Z,993.67
2018-08-12T03:38:04.948Z,993.65
2018-08-12T03:39:05.097Z,993.63
2018-08-12T03:40:05.246Z,993.60
2018-08-12T03:41:05.394Z,993.59
2018-08-12T03:42:05.540Z,993.61
2018-08-12T03:43:05.696Z,993.65
2018-08-12T03:44:05.834Z,993.62
2018-08-12T03:45:05.990Z,993.64
2018-08-12T03:46:06.135Z,993.64
2018-08-12T03:47:06.288Z,993.61
2018-08-12T03:48:06.431Z,993.61
2018-08-12T03:49:06.580Z,993.61
2018-08-12T03:50:06.730Z,993.60
2018-08-12T03:51:06.878Z,993.60
2018-08-12T03:52:07.026Z,993.57
2018-08-12T03:53:07.175Z,993.55
2018-08-12T03:54:07.325Z,993.56
2018-08-12T03:55:07.473Z,993.53
2018-08-12T03:56:07.621Z,993.55
2018-08-12T03:57:07.769Z,993.53
2018-08-12T03:58:07.918Z,993.53
2018-08-12T03:59:08.068Z,993.55
2018-08-12T04:00:08.218Z,993.56
2018-08-12T04:01:08.365Z,993.54
2018-08-12T04:02:08.538Z,993.57
2018-08-12T04:03:08.664Z,993.52
2018-08-12T04:04:08.814Z,993.51
2018-08-12T04:05:08.963Z,993.52
2018-08-12T04:06:09.110Z,993.52
2018-08-12T04:07:09.260Z,993.54
2018-08-12T04:08:09.408Z,993.52
2018-08-12T04:09:09.557Z,993.49
2018-08-12T04:10:09.704Z,993.45
2018-08-12T04:11:09.853Z,993.50
2018-08-12T04:12:10.002Z,993.44
2018-08-12T04:13:10.152Z,993.46
2018-08-12T04:14:10.297Z,993.47
2018-08-12T04:15:10.449Z,993.44
2018-08-12T04:16:10.595Z,993.43
2018-08-12T04:17:10.757Z,993.44
2018-08-12T04:18:10.893Z,993.45
2018-08-12T04:19:11.044Z,993.42
2018-08-12T04:20:11.191Z,993.45
2018-08-12T04:21:11.341Z,993.43
2018-08-12T04:22:11.490Z,993.41
2018-08-12T04:23:11.637Z,993.40
2018-08-12T04:24:11.786Z,993.45
2018-08-12T04:25:11.936Z,993.45
2018-08-12T04:26:12.084Z,993.42
2018-08-12T04:27:12.251Z,993.44
2018-08-12T04:28:12.383Z,993.42
2018-08-12T04:29:12.528Z,993.42
2018-08-12T04:30:12.678Z,993.39
2018-08-12T04:31:12.827Z,993.39
2018-08-12T04:32:12.975Z,993.38
2018-08-12T04:33:13.125Z,993.37
2018-08-12T04:34:13.274Z,993.39
2018-08-12T04:35:13.424Z,993.37
2018-08-12T04:36:13.573Z,993.39
2018-08-12T04:37:13.724Z,993.37
2018-08-12T04:38:13.874Z,993.34
2018-08-12T04:39:14.023Z,993.33
2018-08-12T04:40:14.171Z,993.33
2018-08-12T04:41:14.322Z,993.30
2018-08-12T04:42:14.471Z,993.31
2018-08-12T04:43:14.620Z,993.29
2018-08-12T04:44:14.767Z,993.34
2018-08-12T04:45:14.917Z,993.27
2018-08-12T04:46:15.067Z,993.29
2018-08-12T04:47:15.213Z,993.29
2018-08-12T04:48:15.363Z,993.28
2018-08-12T04:49:15.511Z,993.31
2018-08-12T04:50:15.663Z,993.30
2018-08-12T04:51:15.808Z,993.30
2018-08-12T04:52:15.957Z,993.25
2018-08-12T04:53:16.105Z,993.26
2018-08-12T04:54:16.253Z,993.26
2018-08-12T04:55:16.405Z,993.25
2018-08-12T04:56:16.552Z,993.28
2018-08-12T04:57:16.704Z,993.27
2018-08-12T04:58:16.857Z,993.29
2018-08-12T04:59:17.004Z,993.28
2018-08-12T05:00:17.151Z,993.28
2018-08-12T05:01:17.301Z,993.28
2018-08-12T05:02:17.447Z,993.27
2018-08-12T05:03:17.599Z,993.30
2018-08-12T05:04:17.750Z,993.28
2018-08-12T05:05:17.903Z,993.24
2018-08-12T05:06:18.046Z,993.27
2018-08-12T05:07:18.197Z,993.27
2018-08-12T05:08:18.356Z,993.26
2018-08-12T05:09:18.495Z,993.27
2018-08-12T05:10:18.644Z,993.27
2018-08-12T05:11:18.794Z,993.28
2018-08-12T05:12:18.942Z,993.27
2018-08-12T05:13:19.094Z,993.23
2018-08-12T05:14:19.246Z,993.23
2018-08-12T05:15:19.392Z,993.23
2018-08-12T05:16:19.545Z,993.19
2018-08-12T05:17:19.688Z,993.20
2018-08-12T05:18:19.839Z,993.18
2018-08-12T05:19:19.993Z,993.17
2018-08-12T05:20:20.139Z,993.19
2018-08-12T05:21:20.289Z,993.18
2018-08-12T05:22:20.441Z,993.15
2018-08-12T05:23:20.589Z,993.14
2018-08-12T05:24:20.739Z,993.15
2018-08-12T05:25:20.890Z,993.09
2018-08-12T05:26:21.040Z,993.14
2018-08-12T05:27:21.189Z,993.13
2018-08-12T05:28:21.339Z,993.09
2018-08-12T05:29:21.493Z,993.09
2018-08-12T05:30:21.640Z,993.07
2018-08-12T05:31:21.790Z,993.09
2018-08-12T05:32:21.939Z,993.08
2018-08-12T05:33:22.109Z,993.09
2018-08-12T05:34:22.261Z,993.04
2018-08-12T05:35:22.410Z,993.05
2018-08-12T05:36:22.563Z,993.02
2018-08-12T05:37:22.711Z,993.04
2018-08-12T05:38:22.860Z,993.02
2018-08-12T05:39:23.009Z,992.97
2018-08-12T05:40:23.161Z,992.98
2018-08-12T05:41:23.313Z,992.98
2018-08-12T05:42:23.462Z,993.02
2018-08-12T05:43:23.609Z,993.04
2018-08-12T05:44:23.762Z,993.07
2018-08-12T05:45:23.911Z,993.04
2018-08-12T05:46:24.062Z,993.03
2018-08-12T05:47:24.210Z,993.03
2018-08-12T05:48:24.360Z,993.03
2018-08-12T05:49:24.510Z,992.99
2018-08-12T05:50:24.659Z,993.01
2018-08-12T05:51:24.825Z,993.03
2018-08-12T05:52:24.959Z,993.06
2018-08-12T05:53:25.108Z,993.02
2018-08-12T05:54:25.259Z,993.02
2018-08-12T05:55:25.410Z,992.98
2018-08-12T05:56:25.562Z,992.99
2018-08-12T05:57:25.714Z,993.00
2018-08-12T05:58:25.865Z,992.98
2018-08-12T05:59:26.015Z,992.98
2018-08-12T06:00:26.163Z,992.95
2018-08-12T06:01:26.317Z,992.98
2018-08-12T06:02:26.463Z,993.00
2018-08-12T06:03:26.614Z,992.98
2018-08-12T06:04:26.768Z,992.98
2018-08-12T06:05:26.918Z,993.01
2018-08-12T06:06:27.067Z,993.01
2018-08-12T06:07:27.219Z,993.02
2018-08-12T06:08:27.368Z,992.99
2018-08-12T06:09:27.517Z,993.01
2018-08-12T06:10:27.670Z,993.03
2018-08-12T06:11:27.814Z,993.04
2018-08-12T06:12:27.963Z,993.03
2018-08-12T06:13:28.114Z,993.05
2018-08-12T06:14:28.264Z,993.04
2018-08-12T06:15:28.469Z,993.07
2018-08-12T06:16:28.565Z,993.03
2018-08-12T06:17:28.728Z,993.04
2018-08-12T06:18:28.869Z,993.03
2018-08-12T06:19:29.015Z,993.04
2018-08-12T06:20:29.171Z,993.03
2018-08-12T06:21:29.315Z,993.02
2018-08-12T06:22:29.467Z,993.00
2018-08-12T06:23:29.619Z,993.00
2018-08-12T06:24:29.767Z,992.94
2018-08-12T06:25:29.920Z,993.00
2018-08-12T06:26:30.070Z,992.99
2018-08-12T06:27:30.221Z,992.95
2018-08-12T06:28:30.373Z,992.98
2018-08-12T06:29:30.526Z,992.98
2018-08-12T06:30:30.677Z,992.95
2018-08-12T06:31:30.848Z,992.98
2018-08-12T06:32:30.978Z,992.95
2018-08-12T06:33:31.130Z,992.95
2018-08-12T06:34:31.341Z,992.89
2018-08-12T06:35:31.432Z,992.90
2018-08-12T06:36:31.583Z,992.92
2018-08-12T06:37:31.737Z,992.91
2018-08-12T06:38:31.885Z,992.95
2018-08-12T06:39:32.038Z,992.93
2018-08-12T06:40:32.191Z,992.93
2018-08-12T06:41:32.340Z,992.95
2018-08-12T06:42:32.490Z,992.92
2018-08-12T06:43:32.641Z,992.88
2018-08-12T06:44:32.795Z,992.87
2018-08-12T06:45:32.946Z,992.87
2018-08-12T06:46:33.096Z,992.77
2018-08-12T06:47:33.250Z,992.79
2018-08-12T06:48:33.401Z,992.81
2018-08-12T06:49:33.552Z,992.80
2018-08-12T06:50:33.703Z,992.87
2018-08-12T06:51:33.853Z,992.88
2018-08-12T06:52:34.006Z,992.84
2018-08-12T06:53:34.156Z,992.87
2018-08-12T06:54:34.309Z,992.85
2018-08-12T06:55:34.458Z,992.83
2018-08-12T06:56:34.613Z,992.86
2018-08-12T06:57:34.762Z,992.81
2018-08-12T06:58:34.917Z,992.81
2018-08-12T06:59:35.066Z,992.88
2018-08-12T07:00:35.274Z,992.85
2018-08-12T07:01:35.376Z,992.88
2018-08-12T07:02:35.529Z,992.85
2018-08-12T07:03:35.679Z,992.80
2018-08-12T07:04:35.825Z,992.78
2018-08-12T07:05:35.979Z,992.76
2018-08-12T07:06:36.131Z,992.76
2018-08-12T07:07:36.286Z,992.75
2018-08-12T07:08:36.436Z,992.80
2018-08-12T07:09:36.589Z,992.79
2018-08-12T07:10:36.741Z,992.75
2018-08-12T07:11:36.892Z,992.72
2018-08-12T07:12:37.042Z,992.78
2018-08-12T07:13:37.198Z,992.74
2018-08-12T07:14:37.348Z,992.70
2018-08-12T07:15:37.499Z,992.73
2018-08-12T07:16:37.653Z,992.72
2018-08-12T07:17:37.804Z,992.72
2018-08-12T07:18:37.957Z,992.68
2018-08-12T07:19:38.111Z,992.72
2018-08-12T07:20:38.264Z,992.74
2018-08-12T07:21:38.419Z,992.73
2018-08-12T07:22:38.573Z,992.73
2018-08-12T07:23:38.723Z,992.72
2018-08-12T07:24:38.886Z,992.73
2018-08-12T07:25:39.026Z,992.75
2018-08-12T07:26:39.181Z,992.72
2018-08-12T07:27:39.335Z,992.71
2018-08-12T07:28:39.487Z,992.72
2018-08-12T07:29:39.643Z,992.72
2018-08-12T07:30:39.794Z,992.71
2018-08-12T07:31:39.952Z,992.69
2018-08-12T07:32:40.100Z,992.67
2018-08-12T07:33:40.254Z,992.68
2018-08-12T07:34:40.405Z,992.65
2018-08-12T07:35:40.557Z,992.65
2018-08-12T07:36:40.715Z,992.63
2018-08-12T07:37:40.864Z,992.65
2018-08-12T07:38:41.052Z,992.59
2018-08-12T07:39:41.171Z,992.60
2018-08-12T07:40:41.327Z,992.61
2018-08-12T07:41:41.478Z,992.55
2018-08-12T07:42:41.629Z,992.55
2018-08-12T07:43:41.782Z,992.52
2018-08-12T07:44:41.936Z,992.51
2018-08-12T07:45:42.129Z,992.53
2018-08-12T07:46:42.242Z,992.52
2018-08-12T07:47:42.399Z,992.45
2018-08-12T07:48:42.589Z,992.43
2018-08-12T07:49:42.746Z,992.45
2018-08-12T07:50:42.861Z,992.43
2018-08-12T07:51:43.019Z,992.42
2018-08-12T07:52:43.174Z,992.39
2018-08-12T07:53:43.325Z,992.38
2018-08-12T07:54:43.480Z,992.39
2018-08-12T07:55:43.755Z,992.40
2018-08-12T07:56:43.785Z,992.36
2018-08-12T07:57:43.942Z,992.36
2018-08-12T07:58:44.098Z,992.36
2018-08-12T07:59:44.255Z,992.34
2018-08-12T08:00:44.413Z,992.33
2018-08-12T08:01:44.563Z,992.32
2018-08-12T08:02:44.727Z,992.32
2018-08-12T08:03:44.869Z,992.28
2018-08-12T08:04:45.023Z,992.33
2018-08-12T08:05:45.175Z,992.31
2018-08-12T08:06:45.331Z,992.30
2018-08-12T08:07:45.484Z,992.32
2018-08-12T08:08:45.639Z,992.35
2018-08-12T08:09:45.793Z,992.31
2018-08-12T08:10:45.946Z,992.29
2018-08-12T08:11:46.101Z,992.34
2018-08-12T08:12:46.259Z,992.35
2018-08-12T08:13:46.413Z,992.35
2018-08-12T08:14:46.567Z,992.37
2018-08-12T08:15:46.731Z,992.36
2018-08-12T08:16:46.899Z,992.35
2018-08-12T08:17:47.052Z,992.33
2018-08-12T08:18:47.211Z,992.34
2018-08-12T08:19:47.431Z,992.28
2018-08-12T08:20:47.525Z,992.31
2018-08-12T08:21:47.683Z,992.28
2018-08-12T08:22:47.841Z,992.30
2018-08-12T08:23:47.993Z,992.32
2018-08-12T08:24:48.149Z,992.29
2018-08-12T08:25:48.307Z,992.29
2018-08-12T08:26:48.460Z,992.30
2018-08-12T08:27:48.616Z,992.28
2018-08-12T08:28:48.772Z,992.28
2018-08-12T08:29:48.927Z,992.27
2018-08-12T08:30:49.083Z,992.26
2018-08-12T08:31:50.361Z,992.24
2018-08-12T08:32:49.433Z,992.23
2018-08-12T08:33:49.596Z,992.24
2018-08-12T08:34:49.739Z,992.25
2018-08-12T08:35:49.896Z,992.29
2018-08-12T08:36:50.052Z,992.27
2018-08-12T08:37:50.205Z,992.24
2018-08-12T08:38:50.358Z,992.23
2018-08-12T08:39:50.513Z,992.21
2018-08-12T08:40:50.672Z,992.23
2018-08-12T08:41:50.825Z,992.22
2018-08-12T08:42:50.979Z,992.22
2018-08-12T08:43:51.162Z,992.21
2018-08-12T08:44:51.292Z,992.17
2018-08-12T08:45:51.446Z,992.21
2018-08-12T08:46:51.596Z,992.17
2018-08-12T08:47:51.752Z,992.15
2018-08-12T08:48:51.905Z,992.13
2018-08-12T08:49:52.066Z,992.15
2018-08-12T08:50:52.250Z,992.15
2018-08-12T08:51:52.406Z,992.13
2018-08-12T08:52:52.561Z,992.14
2018-08-12T08:53:52.717Z,992.19
2018-08-12T08:54:52.874Z,992.16
2018-08-12T08:55:53.110Z,992.18
2018-08-12T08:56:53.206Z,992.14
2018-08-12T08:57:53.360Z,992.15
2018-08-12T08:58:53.518Z,992.17
2018-08-12T08:59:53.675Z,992.16
2018-08-12T09:00:53.844Z,992.18
2018-08-12T09:01:53.988Z,992.15
2018-08-12T09:02:54.145Z,992.16
2018-08-12T09:03:54.302Z,992.10
2018-08-12T09:04:54.456Z,992.13
2018-08-12T09:05:54.616Z,992.12
2018-08-12T09:06:54.774Z,992.08
2018-08-12T09:07:54.939Z,992.15
2018-08-12T09:08:55.191Z,992.09
2018-08-12T09:09:55.242Z,992.14
2018-08-12T09:10:55.403Z,992.08
2018-08-12T09:11:55.563Z,992.05
2018-08-12T09:12:55.721Z,992.05
2018-08-12T09:13:55.880Z,992.09
2018-08-12T09:14:56.040Z,992.08
2018-08-12T09:15:56.202Z,992.10
2018-08-12T09:16:56.358Z,992.06
2018-08-12T09:17:56.519Z,992.04
2018-08-12T09:18:56.680Z,992.07
2018-08-12T09:19:56.837Z,992.08
2018-08-12T09:20:56.994Z,992.09
2018-08-12T09:21:57.154Z,992.03
2018-08-12T09:22:57.313Z,992.02
2018-08-12T09:23:57.476Z,992.00
2018-08-12T09:24:57.624Z,992.02
2018-08-12T09:25:57.781Z,991.99
2018-08-12T09:26:57.937Z,991.91
2018-08-12T09:27:58.095Z,991.97
2018-08-12T09:28:58.251Z,991.94
2018-08-12T09:29:58.407Z,991.93
2018-08-12T09:30:58.564Z,991.88
2018-08-12T09:31:58.728Z,991.91
2018-08-12T09:32:58.883Z,991.90
2018-08-12T09:33:59.039Z,991.82
2018-08-12T09:34:59.195Z,991.81
2018-08-12T09:35:59.353Z,991.82
2018-08-12T09:36:59.510Z,991.78
2018-08-12T09:37:59.663Z,991.74
2018-08-12T09:38:59.824Z,991.76
2018-08-12T09:39:59.979Z,991.75
2018-08-12T09:41:00.136Z,991.76
2018-08-12T09:42:00.295Z,991.72
2018-08-12T09:43:00.457Z,991.77
2018-08-12T09:44:00.614Z,991.73
2018-08-12T09:45:00.770Z,991.70
2018-08-12T09:46:00.928Z,991.68
2018-08-12T09:47:01.086Z,991.65
2018-08-12T09:48:01.244Z,991.61
2018-08-12T09:49:01.551Z,991.60
2018-08-12T09:50:01.562Z,991.58
2018-08-12T09:51:01.712Z,991.59
2018-08-12T09:52:01.867Z,991.57
2018-08-12T09:53:02.029Z,991.53
2018-08-12T09:54:02.185Z,991.51
2018-08-12T09:55:02.347Z,991.48
2018-08-12T09:56:02.504Z,991.51
2018-08-12T09:57:02.704Z,991.47
2018-08-12T09:58:02.910Z,991.46
2018-08-12T09:59:03.054Z,991.52
2018-08-12T10:00:03.210Z,991.50
2018-08-12T10:01:03.368Z,991.48
2018-08-12T10:02:03.526Z,991.44
2018-08-12T10:03:03.683Z,991.49
2018-08-12T10:04:03.842Z,991.51
2018-08-12T10:05:04.001Z,991.51
2018-08-12T10:06:04.159Z,991.49
2018-08-12T10:07:04.322Z,991.48
2018-08-12T10:08:04.469Z,991.43
2018-08-12T10:09:04.625Z,991.39
2018-08-12T10:10:04.797Z,991.41
2018-08-12T10:11:04.936Z,991.39
2018-08-12T10:12:05.093Z,991.37
2018-08-12T10:13:05.267Z,991.38
2018-08-12T10:14:05.414Z,991.34
2018-08-12T10:15:05.563Z,991.31
2018-08-12T10:16:05.713Z,991.30
2018-08-12T10:17:05.868Z,991.34
2018-08-12T10:18:06.033Z,991.32
2018-08-12T10:19:06.182Z,991.32
2018-08-12T10:20:06.342Z,991.32
2018-08-12T10:21:06.510Z,991.32
2018-08-12T10:22:06.661Z,991.30
2018-08-12T10:23:06.818Z,991.27
2018-08-12T10:24:06.975Z,991.25
2018-08-12T10:25:07.135Z,991.24
2018-08-12T10:26:07.292Z,991.20
2018-08-12T10:27:07.449Z,991.22
2018-08-12T10:28:07.609Z,991.20
2018-08-12T10:29:07.817Z,991.19
2018-08-12T10:30:07.925Z,991.16
2018-08-12T10:31:08.478Z,991.17
2018-08-12T10:32:08.276Z,991.17
2018-08-12T10:33:08.435Z,991.16
2018-08-12T10:34:08.604Z,991.13
2018-08-12T10:35:08.752Z,991.16
2018-08-12T10:36:08.915Z,991.12
2018-08-12T10:37:09.073Z,991.08
2018-08-12T10:38:09.231Z,991.06
2018-08-12T10:39:09.390Z,991.02
2018-08-12T10:40:09.549Z,991.04
2018-08-12T10:41:09.707Z,990.99
2018-08-12T10:42:09.870Z,991.01
2018-08-12T10:43:10.023Z,991.06
2018-08-12T10:44:10.192Z,991.05
2018-08-12T10:45:10.350Z,991.05
2018-08-12T10:46:10.511Z,991.03
2018-08-12T10:47:10.678Z,991.00
2018-08-12T10:48:10.841Z,990.95
2018-08-12T10:49:11.001Z,990.92
2018-08-12T10:50:11.160Z,990.89
2018-08-12T10:51:11.318Z,990.87
2018-08-12T10:52:11.494Z,990.84
2018-08-12T10:53:11.650Z,990.88
2018-08-12T10:54:11.808Z,990.79
2018-08-12T10:55:11.968Z,990.83
2018-08-12T10:56:12.124Z,990.77
2018-08-12T10:57:12.283Z,990.75
2018-08-12T10:58:12.442Z,990.69
2018-08-12T10:59:12.642Z,990.75
2018-08-12T11:00:12.770Z,990.73
2018-08-12T11:01:12.914Z,990.70
2018-08-12T11:02:13.076Z,990.69
2018-08-12T11:03:13.259Z,990.69
2018-08-12T11:04:13.424Z,990.68
2018-08-12T11:05:13.575Z,990.65
2018-08-12T11:06:13.738Z,990.65
2018-08-12T11:07:13.964Z,990.59
2018-08-12T11:08:14.059Z,990.58
2018-08-12T11:09:14.221Z,990.62
2018-08-12T11:10:14.377Z,990.60
2018-08-12T11:11:14.534Z,990.62
2018-08-12T11:12:14.734Z,990.60
2018-08-12T11:13:14.853Z,990.57
2018-08-12T11:14:15.018Z,990.60
2018-08-12T11:15:15.173Z,990.57
2018-08-12T11:16:15.333Z,990.55
2018-08-12T11:17:15.491Z,990.54
2018-08-12T11:18:15.652Z,990.50
2018-08-12T11:19:15.813Z,990.49
2018-08-12T11:20:15.974Z,990.41
2018-08-12T11:21:16.135Z,990.47
2018-08-12T11:22:16.293Z,990.44
2018-08-12T11:23:16.460Z,990.45
2018-08-12T11:24:16.612Z,990.44
2018-08-12T11:25:16.770Z,990.42
2018-08-12T11:26:16.971Z,990.44
2018-08-12T11:27:17.091Z,990.44
2018-08-12T11:28:17.252Z,990.36
2018-08-12T11:29:17.414Z,990.36
2018-08-12T11:30:17.576Z,990.34
2018-08-12T11:31:17.735Z,990.26
2018-08-12T11:32:17.895Z,990.25
2018-08-12T11:33:18.054Z,990.30
2018-08-12T11:34:18.217Z,990.27
2018-08-12T11:35:18.386Z,990.25
2018-08-12T11:36:18.594Z,990.20
2018-08-12T11:37:18.761Z,990.16
2018-08-12T11:38:18.920Z,990.12
2018-08-12T11:39:19.081Z,990.12
2018-08-12T11:40:19.267Z,990.10
2018-08-12T11:41:19.448Z,990.10
2018-08-12T11:42:19.568Z,990.07
2018-08-12T11:43:19.730Z,990.13
2018-08-12T11:44:19.884Z,990.06
2018-08-12T11:45:20.049Z,990.07
2018-08-12T11:46:20.205Z,990.05
2018-08-12T11:47:20.404Z,990.00
2018-08-12T11:48:20.539Z,990.04
2018-08-12T11:49:20.709Z,990.00
2018-08-12T11:50:20.871Z,990.02
2018-08-12T11:51:21.030Z,989.97
2018-08-12T11:52:21.189Z,990.05
2018-08-12T11:53:21.348Z,990.02
2018-08-12T11:54:21.509Z,989.96
2018-08-12T11:55:21.677Z,989.93
2018-08-12T11:56:21.837Z,989.91
2018-08-12T11:57:21.999Z,989.90
2018-08-12T11:58:22.168Z,989.87
2018-08-12T11:59:22.329Z,989.89
2018-08-12T12:00:22.504Z,989.83
2018-08-12T12:01:22.664Z,989.78
2018-08-12T12:02:22.825Z,989.87
2018-08-12T12:03:22.988Z,989.90
2018-08-12T12:04:23.230Z,989.90
2018-08-12T12:05:23.307Z,989.89
2018-08-12T12:06:23.475Z,989.89
2018-08-12T12:07:23.631Z,989.88
2018-08-12T12:08:23.791Z,989.83
2018-08-12T12:09:23.952Z,989.85
2018-08-12T12:10:24.115Z,989.84
2018-08-12T12:11:24.278Z,989.78
2018-08-12T12:12:24.434Z,989.79
2018-08-12T12:13:24.594Z,989.77
2018-08-12T12:14:24.756Z,989.77
2018-08-12T12:15:24.929Z,989.70
2018-08-12T12:16:25.097Z,989.71
2018-08-12T12:17:25.257Z,989.70
2018-08-12T12:18:25.434Z,989.75
2018-08-12T12:19:25.577Z,989.72
2018-08-12T12:20:25.790Z,989.72
2018-08-12T12:21:25.899Z,989.73
2018-08-12T12:22:26.255Z,989.74
2018-08-12T12:23:26.199Z,989.68
2018-08-12T12:24:26.377Z,989.67
2018-08-12T12:25:26.527Z,989.69
2018-08-12T12:26:26.683Z,989.67
2018-08-12T12:27:26.840Z,989.62
2018-08-12T12:28:27.001Z,989.63
2018-08-12T12:29:27.161Z,989.63
2018-08-12T12:30:27.322Z,989.62